sensor_id;sensor_type;location;lat;lon;timestamp;temperature;humidity
65378;SHT31;51982;51.042;13.806;2023-05-14T00:02:07;16.12;77.53
65378;SHT31;51982;51.042;13.806;2023-05-14T00:04:32;16.12;77.60
65378;SHT31;51982;51.042;13.806;2023-05-14T00:06:57;16.12;77.80
65378;SHT31;51982;51.042;13.806;2023-05-14T00:09:23;16.14;77.80
65378;SHT31;51982;51.042;13.806;2023-05-14T00:11:48;16.12;77.80
65378;SHT31;51982;51.042;13.806;2023-05-14T00:14:13;16.06;77.77
65378;SHT31;51982;51.042;13.806;2023-05-14T00:16:38;16.05;77.76
65378;SHT31;51982;51.042;13.806;2023-05-14T00:19:04;16.03;77.78
65378;SHT31;51982;51.042;13.806;2023-05-14T00:21:29;16.03;77.76
65378;SHT31;51982;51.042;13.806;2023-05-14T00:23:55;16.00;77.74
65378;SHT31;51982;51.042;13.806;2023-05-14T00:26:20;15.99;77.86
65378;SHT31;51982;51.042;13.806;2023-05-14T00:28:46;15.99;78.01
65378;SHT31;51982;51.042;13.806;2023-05-14T00:31:11;16.02;77.92
65378;SHT31;51982;51.042;13.806;2023-05-14T00:33:36;16.00;77.90
65378;SHT31;51982;51.042;13.806;2023-05-14T00:36:01;16.03;78.12
65378;SHT31;51982;51.042;13.806;2023-05-14T00:38:27;16.02;77.97
65378;SHT31;51982;51.042;13.806;2023-05-14T00:40:52;16.02;78.08
65378;SHT31;51982;51.042;13.806;2023-05-14T00:43:19;16.00;78.14
65378;SHT31;51982;51.042;13.806;2023-05-14T00:45:45;15.99;78.26
65378;SHT31;51982;51.042;13.806;2023-05-14T00:48:11;15.97;78.21
65378;SHT31;51982;51.042;13.806;2023-05-14T00:50:37;15.95;78.29
65378;SHT31;51982;51.042;13.806;2023-05-14T00:53:03;16.00;78.49
65378;SHT31;51982;51.042;13.806;2023-05-14T00:55:34;15.99;78.39
65378;SHT31;51982;51.042;13.806;2023-05-14T00:57:59;15.97;78.51
65378;SHT31;51982;51.042;13.806;2023-05-14T01:00:25;15.97;78.42
65378;SHT31;51982;51.042;13.806;2023-05-14T01:02:50;15.93;78.52
65378;SHT31;51982;51.042;13.806;2023-05-14T01:05:16;15.92;78.54
65378;SHT31;51982;51.042;13.806;2023-05-14T01:10:30;15.92;78.84
65378;SHT31;51982;51.042;13.806;2023-05-14T01:13:23;15.92;78.88
65378;SHT31;51982;51.042;13.806;2023-05-14T01:15:51;15.90;78.64
65378;SHT31;51982;51.042;13.806;2023-05-14T01:18:19;15.87;78.70
65378;SHT31;51982;51.042;13.806;2023-05-14T01:20:49;15.82;78.77
65378;SHT31;51982;51.042;13.806;2023-05-14T01:23:15;15.81;78.89
65378;SHT31;51982;51.042;13.806;2023-05-14T01:25:40;15.85;79.01
65378;SHT31;51982;51.042;13.806;2023-05-14T01:28:18;15.81;78.92
65378;SHT31;51982;51.042;13.806;2023-05-14T01:33:18;15.83;78.89
65378;SHT31;51982;51.042;13.806;2023-05-14T01:35:45;15.83;79.00
65378;SHT31;51982;51.042;13.806;2023-05-14T01:38:12;15.82;78.92
65378;SHT31;51982;51.042;13.806;2023-05-14T01:40:38;15.79;79.16
65378;SHT31;51982;51.042;13.806;2023-05-14T01:43:04;15.78;79.16
65378;SHT31;51982;51.042;13.806;2023-05-14T01:45:30;15.81;79.24
65378;SHT31;51982;51.042;13.806;2023-05-14T01:47:56;15.78;79.20
65378;SHT31;51982;51.042;13.806;2023-05-14T01:50:21;15.79;79.31
65378;SHT31;51982;51.042;13.806;2023-05-14T01:52:47;15.78;79.33
65378;SHT31;51982;51.042;13.806;2023-05-14T01:55:12;15.73;79.43
65378;SHT31;51982;51.042;13.806;2023-05-14T01:57:38;15.72;79.40
65378;SHT31;51982;51.042;13.806;2023-05-14T02:00:04;15.72;79.35
65378;SHT31;51982;51.042;13.806;2023-05-14T02:02:29;15.66;79.46
65378;SHT31;51982;51.042;13.806;2023-05-14T02:04:54;15.63;79.56
65378;SHT31;51982;51.042;13.806;2023-05-14T02:07:20;15.62;79.59
65378;SHT31;51982;51.042;13.806;2023-05-14T02:09:45;15.58;79.68
65378;SHT31;51982;51.042;13.806;2023-05-14T02:12:10;15.54;79.73
65378;SHT31;51982;51.042;13.806;2023-05-14T02:14:36;15.49;79.76
65378;SHT31;51982;51.042;13.806;2023-05-14T02:17:02;15.46;79.81
65378;SHT31;51982;51.042;13.806;2023-05-14T02:19:28;15.45;79.94
65378;SHT31;51982;51.042;13.806;2023-05-14T02:21:53;15.45;79.89
65378;SHT31;51982;51.042;13.806;2023-05-14T02:24:18;15.44;79.93
65378;SHT31;51982;51.042;13.806;2023-05-14T02:26:43;15.41;79.99
65378;SHT31;51982;51.042;13.806;2023-05-14T02:29:08;15.41;80.07
65378;SHT31;51982;51.042;13.806;2023-05-14T02:31:34;15.38;80.13
65378;SHT31;51982;51.042;13.806;2023-05-14T02:34:03;15.32;80.08
65378;SHT31;51982;51.042;13.806;2023-05-14T02:36:28;15.30;80.20
65378;SHT31;51982;51.042;13.806;2023-05-14T02:38:53;15.20;80.34
65378;SHT31;51982;51.042;13.806;2023-05-14T02:41:18;15.18;80.40
65378;SHT31;51982;51.042;13.806;2023-05-14T02:43:44;15.18;80.38
65378;SHT31;51982;51.042;13.806;2023-05-14T02:46:09;15.17;80.29
65378;SHT31;51982;51.042;13.806;2023-05-14T02:48:34;15.17;80.27
65378;SHT31;51982;51.042;13.806;2023-05-14T02:50:59;15.11;80.23
65378;SHT31;51982;51.042;13.806;2023-05-14T02:53:25;15.14;80.45
65378;SHT31;51982;51.042;13.806;2023-05-14T02:55:50;15.14;80.36
65378;SHT31;51982;51.042;13.806;2023-05-14T02:58:15;15.11;80.43
65378;SHT31;51982;51.042;13.806;2023-05-14T03:00:41;15.11;80.41
65378;SHT31;51982;51.042;13.806;2023-05-14T03:03:06;15.07;80.38
65378;SHT31;51982;51.042;13.806;2023-05-14T03:05:31;15.01;80.52
65378;SHT31;51982;51.042;13.806;2023-05-14T03:07:57;15.04;80.46
65378;SHT31;51982;51.042;13.806;2023-05-14T03:10:22;15.04;80.51
65378;SHT31;51982;51.042;13.806;2023-05-14T03:12:47;15.00;80.59
65378;SHT31;51982;51.042;13.806;2023-05-14T03:15:13;14.98;80.62
65378;SHT31;51982;51.042;13.806;2023-05-14T03:17:38;14.94;80.65
65378;SHT31;51982;51.042;13.806;2023-05-14T03:20:04;14.94;80.81
65378;SHT31;51982;51.042;13.806;2023-05-14T03:22:29;14.91;80.80
65378;SHT31;51982;51.042;13.806;2023-05-14T03:24:54;14.90;80.85
65378;SHT31;51982;51.042;13.806;2023-05-14T03:27:20;14.87;80.73
65378;SHT31;51982;51.042;13.806;2023-05-14T03:29:45;14.87;80.81
65378;SHT31;51982;51.042;13.806;2023-05-14T03:32:10;14.87;80.79
65378;SHT31;51982;51.042;13.806;2023-05-14T03:34:39;14.85;80.78
65378;SHT31;51982;51.042;13.806;2023-05-14T03:37:04;14.85;80.79
65378;SHT31;51982;51.042;13.806;2023-05-14T03:39:29;14.84;80.76
65378;SHT31;51982;51.042;13.806;2023-05-14T03:41:55;14.83;80.77
65378;SHT31;51982;51.042;13.806;2023-05-14T03:44:21;14.83;80.66
65378;SHT31;51982;51.042;13.806;2023-05-14T03:46:46;14.77;80.68
65378;SHT31;51982;51.042;13.806;2023-05-14T03:49:11;14.71;80.78
65378;SHT31;51982;51.042;13.806;2023-05-14T03:51:37;14.71;80.92
65378;SHT31;51982;51.042;13.806;2023-05-14T03:54:02;14.71;80.82
65378;SHT31;51982;51.042;13.806;2023-05-14T03:56:27;14.70;80.79
65378;SHT31;51982;51.042;13.806;2023-05-14T03:58:52;14.67;80.83
65378;SHT31;51982;51.042;13.806;2023-05-14T04:01:17;14.67;80.86
65378;SHT31;51982;51.042;13.806;2023-05-14T04:03:43;14.64;80.87
65378;SHT31;51982;51.042;13.806;2023-05-14T04:06:08;14.64;81.04
65378;SHT31;51982;51.042;13.806;2023-05-14T04:08:33;14.64;81.20
65378;SHT31;51982;51.042;13.806;2023-05-14T04:10:59;14.66;81.23
65378;SHT31;51982;51.042;13.806;2023-05-14T04:13:24;14.70;81.11
65378;SHT31;51982;51.042;13.806;2023-05-14T04:15:49;14.67;81.04
65378;SHT31;51982;51.042;13.806;2023-05-14T04:18:14;14.66;81.13
65378;SHT31;51982;51.042;13.806;2023-05-14T04:20:41;14.64;81.10
65378;SHT31;51982;51.042;13.806;2023-05-14T04:23:06;14.64;81.19
65378;SHT31;51982;51.042;13.806;2023-05-14T04:25:31;14.63;81.41
65378;SHT31;51982;51.042;13.806;2023-05-14T04:27:56;14.64;81.38
65378;SHT31;51982;51.042;13.806;2023-05-14T04:30:22;14.63;81.26
65378;SHT31;51982;51.042;13.806;2023-05-14T04:32:48;14.64;81.27
65378;SHT31;51982;51.042;13.806;2023-05-14T04:35:13;14.67;81.24
65378;SHT31;51982;51.042;13.806;2023-05-14T04:37:38;14.70;81.17
65378;SHT31;51982;51.042;13.806;2023-05-14T04:40:07;14.64;81.10
65378;SHT31;51982;51.042;13.806;2023-05-14T04:42:32;14.67;81.26
65378;SHT31;51982;51.042;13.806;2023-05-14T04:44:58;14.69;81.24
65378;SHT31;51982;51.042;13.806;2023-05-14T04:47:23;14.71;81.15
65378;SHT31;51982;51.042;13.806;2023-05-14T04:49:48;14.76;81.15
65378;SHT31;51982;51.042;13.806;2023-05-14T04:52:13;14.76;81.33
65378;SHT31;51982;51.042;13.806;2023-05-14T04:54:39;14.76;81.28
65378;SHT31;51982;51.042;13.806;2023-05-14T04:57:04;14.76;81.00
65378;SHT31;51982;51.042;13.806;2023-05-14T04:59:30;14.79;81.00
65378;SHT31;51982;51.042;13.806;2023-05-14T05:01:55;14.83;80.69
65378;SHT31;51982;51.042;13.806;2023-05-14T05:04:20;14.85;80.64
65378;SHT31;51982;51.042;13.806;2023-05-14T05:06:48;14.88;80.61
65378;SHT31;51982;51.042;13.806;2023-05-14T05:09:13;14.94;80.55
65378;SHT31;51982;51.042;13.806;2023-05-14T05:11:38;15.04;80.53
65378;SHT31;51982;51.042;13.806;2023-05-14T05:14:03;15.18;80.57
65378;SHT31;51982;51.042;13.806;2023-05-14T05:16:29;15.28;80.22
65378;SHT31;51982;51.042;13.806;2023-05-14T05:18:54;15.31;79.97
65378;SHT31;51982;51.042;13.806;2023-05-14T05:21:19;15.36;79.87
65378;SHT31;51982;51.042;13.806;2023-05-14T05:23:45;15.31;79.56
65378;SHT31;51982;51.042;13.806;2023-05-14T05:26:10;15.31;79.53
65378;SHT31;51982;51.042;13.806;2023-05-14T05:28:35;15.34;79.58
65378;SHT31;51982;51.042;13.806;2023-05-14T05:31:00;15.36;79.39
65378;SHT31;51982;51.042;13.806;2023-05-14T05:33:25;15.39;79.44
65378;SHT31;51982;51.042;13.806;2023-05-14T05:35:51;15.44;79.37
65378;SHT31;51982;51.042;13.806;2023-05-14T05:38:16;15.46;79.08
65378;SHT31;51982;51.042;13.806;2023-05-14T05:40:42;15.54;79.06
65378;SHT31;51982;51.042;13.806;2023-05-14T05:43:07;15.52;79.11
65378;SHT31;51982;51.042;13.806;2023-05-14T05:45:32;15.51;78.86
65378;SHT31;51982;51.042;13.806;2023-05-14T05:47:58;15.52;79.15
65378;SHT31;51982;51.042;13.806;2023-05-14T05:50:23;15.59;78.98
65378;SHT31;51982;51.042;13.806;2023-05-14T05:52:48;15.58;78.73
65378;SHT31;51982;51.042;13.806;2023-05-14T05:55:13;15.61;78.74
65378;SHT31;51982;51.042;13.806;2023-05-14T05:57:39;15.63;78.68
65378;SHT31;51982;51.042;13.806;2023-05-14T06:00:04;15.62;78.77
65378;SHT31;51982;51.042;13.806;2023-05-14T06:02:37;15.65;78.74
65378;SHT31;51982;51.042;13.806;2023-05-14T06:05:03;15.69;78.76
65378;SHT31;51982;51.042;13.806;2023-05-14T06:07:28;15.72;78.79
65378;SHT31;51982;51.042;13.806;2023-05-14T06:09:53;15.72;78.47
65378;SHT31;51982;51.042;13.806;2023-05-14T06:12:18;15.75;78.52
65378;SHT31;51982;51.042;13.806;2023-05-14T06:14:43;15.81;78.44
65378;SHT31;51982;51.042;13.806;2023-05-14T06:17:09;15.82;78.69
65378;SHT31;51982;51.042;13.806;2023-05-14T06:19:34;15.86;78.55
65378;SHT31;51982;51.042;13.806;2023-05-14T06:21:59;15.90;78.64
65378;SHT31;51982;51.042;13.806;2023-05-14T06:24:24;15.92;78.81
65378;SHT31;51982;51.042;13.806;2023-05-14T06:26:50;15.96;78.71
65378;SHT31;51982;51.042;13.806;2023-05-14T06:29:15;15.99;78.61
65378;SHT31;51982;51.042;13.806;2023-05-14T06:31:40;16.03;78.57
65378;SHT31;51982;51.042;13.806;2023-05-14T06:34:05;16.09;78.71
65378;SHT31;51982;51.042;13.806;2023-05-14T06:36:30;16.16;79.00
65378;SHT31;51982;51.042;13.806;2023-05-14T06:38:56;16.17;78.50
65378;SHT31;51982;51.042;13.806;2023-05-14T06:41:21;16.23;78.20
65378;SHT31;51982;51.042;13.806;2023-05-14T06:43:46;16.30;78.13
65378;SHT31;51982;51.042;13.806;2023-05-14T06:46:11;16.38;78.07
65378;SHT31;51982;51.042;13.806;2023-05-14T06:48:37;16.48;77.71
65378;SHT31;51982;51.042;13.806;2023-05-14T06:51:02;16.56;76.97
65378;SHT31;51982;51.042;13.806;2023-05-14T06:53:27;16.67;76.95
65378;SHT31;51982;51.042;13.806;2023-05-14T06:55:53;16.77;76.86
65378;SHT31;51982;51.042;13.806;2023-05-14T06:58:18;16.88;76.60
65378;SHT31;51982;51.042;13.806;2023-05-14T07:00:43;17.02;76.57
65378;SHT31;51982;51.042;13.806;2023-05-14T07:03:08;17.11;75.95
65378;SHT31;51982;51.042;13.806;2023-05-14T07:05:34;17.22;75.99
65378;SHT31;51982;51.042;13.806;2023-05-14T07:07:59;17.25;75.73
65378;SHT31;51982;51.042;13.806;2023-05-14T07:10:24;17.29;75.76
65378;SHT31;51982;51.042;13.806;2023-05-14T07:12:50;17.33;75.41
65378;SHT31;51982;51.042;13.806;2023-05-14T07:15:15;17.38;75.88
65378;SHT31;51982;51.042;13.806;2023-05-14T07:17:40;17.38;76.04
65378;SHT31;51982;51.042;13.806;2023-05-14T07:20:06;17.38;75.89
65378;SHT31;51982;51.042;13.806;2023-05-14T07:22:31;17.43;75.61
65378;SHT31;51982;51.042;13.806;2023-05-14T07:24:57;17.45;75.17
65378;SHT31;51982;51.042;13.806;2023-05-14T07:27:22;17.49;75.01
65378;SHT31;51982;51.042;13.806;2023-05-14T07:29:48;17.52;74.82
65378;SHT31;51982;51.042;13.806;2023-05-14T07:32:13;17.57;75.04
65378;SHT31;51982;51.042;13.806;2023-05-14T07:34:39;17.60;74.97
65378;SHT31;51982;51.042;13.806;2023-05-14T07:37:04;17.65;75.17
65378;SHT31;51982;51.042;13.806;2023-05-14T07:39:29;17.66;74.96
65378;SHT31;51982;51.042;13.806;2023-05-14T07:41:54;17.70;74.88
65378;SHT31;51982;51.042;13.806;2023-05-14T07:44:22;17.74;74.87
65378;SHT31;51982;51.042;13.806;2023-05-14T07:46:48;17.77;74.48
65378;SHT31;51982;51.042;13.806;2023-05-14T07:49:13;17.77;74.54
65378;SHT31;51982;51.042;13.806;2023-05-14T07:51:38;17.83;74.37
65378;SHT31;51982;51.042;13.806;2023-05-14T07:54:03;17.83;74.05
65378;SHT31;51982;51.042;13.806;2023-05-14T07:56:29;17.87;74.16
65378;SHT31;51982;51.042;13.806;2023-05-14T07:58:54;17.90;74.59
65378;SHT31;51982;51.042;13.806;2023-05-14T08:01:20;17.93;73.84
65378;SHT31;51982;51.042;13.806;2023-05-14T08:03:45;17.96;73.31
65378;SHT31;51982;51.042;13.806;2023-05-14T08:06:11;17.97;72.72
65378;SHT31;51982;51.042;13.806;2023-05-14T08:08:36;17.97;72.47
65378;SHT31;51982;51.042;13.806;2023-05-14T08:11:02;18.00;73.04
65378;SHT31;51982;51.042;13.806;2023-05-14T08:13:27;18.10;72.56
65378;SHT31;51982;51.042;13.806;2023-05-14T08:15:52;18.14;72.44
65378;SHT31;51982;51.042;13.806;2023-05-14T08:18:17;18.18;72.45
65378;SHT31;51982;51.042;13.806;2023-05-14T08:20:43;18.24;72.65
65378;SHT31;51982;51.042;13.806;2023-05-14T08:23:08;18.28;72.92
65378;SHT31;51982;51.042;13.806;2023-05-14T08:25:33;18.34;73.39
65378;SHT31;51982;51.042;13.806;2023-05-14T08:27:59;18.38;72.81
65378;SHT31;51982;51.042;13.806;2023-05-14T08:30:24;18.38;72.91
65378;SHT31;51982;51.042;13.806;2023-05-14T08:32:50;18.42;72.65
65378;SHT31;51982;51.042;13.806;2023-05-14T08:35:16;18.49;72.80
65378;SHT31;51982;51.042;13.806;2023-05-14T08:37:41;18.56;72.75
65378;SHT31;51982;51.042;13.806;2023-05-14T08:40:07;18.65;72.93
65378;SHT31;51982;51.042;13.806;2023-05-14T08:42:33;18.69;72.61
65378;SHT31;51982;51.042;13.806;2023-05-14T08:45:02;18.66;72.27
65378;SHT31;51982;51.042;13.806;2023-05-14T08:47:29;18.69;72.38
65378;SHT31;51982;51.042;13.806;2023-05-14T08:50:03;18.76;72.47
65378;SHT31;51982;51.042;13.806;2023-05-14T08:52:29;18.84;71.94
65378;SHT31;51982;51.042;13.806;2023-05-14T08:54:54;18.85;72.03
65378;SHT31;51982;51.042;13.806;2023-05-14T08:57:21;18.88;71.90
65378;SHT31;51982;51.042;13.806;2023-05-14T08:59:49;18.91;71.85
65378;SHT31;51982;51.042;13.806;2023-05-14T09:02:15;18.93;71.64
65378;SHT31;51982;51.042;13.806;2023-05-14T09:04:41;18.96;71.58
65378;SHT31;51982;51.042;13.806;2023-05-14T09:07:07;18.99;71.89
65378;SHT31;51982;51.042;13.806;2023-05-14T09:09:32;19.06;71.55
65378;SHT31;51982;51.042;13.806;2023-05-14T09:11:57;19.12;71.53
65378;SHT31;51982;51.042;13.806;2023-05-14T09:14:23;19.17;71.24
65378;SHT31;51982;51.042;13.806;2023-05-14T09:16:49;19.20;71.28
65378;SHT31;51982;51.042;13.806;2023-05-14T09:19:15;19.27;70.80
65378;SHT31;51982;51.042;13.806;2023-05-14T09:21:43;19.31;70.59
65378;SHT31;51982;51.042;13.806;2023-05-14T09:24:17;19.37;70.43
65378;SHT31;51982;51.042;13.806;2023-05-14T09:26:43;19.46;70.68
65378;SHT31;51982;51.042;13.806;2023-05-14T09:29:09;19.53;70.61
65378;SHT31;51982;51.042;13.806;2023-05-14T09:31:35;19.57;70.43
65378;SHT31;51982;51.042;13.806;2023-05-14T09:34:01;19.66;69.94
65378;SHT31;51982;51.042;13.806;2023-05-14T09:36:26;19.70;69.77
65378;SHT31;51982;51.042;13.806;2023-05-14T09:38:55;19.74;69.42
65378;SHT31;51982;51.042;13.806;2023-05-14T09:41:20;19.81;69.16
65378;SHT31;51982;51.042;13.806;2023-05-14T09:43:47;19.82;68.44
65378;SHT31;51982;51.042;13.806;2023-05-14T09:46:12;19.81;68.15
65378;SHT31;51982;51.042;13.806;2023-05-14T09:48:37;19.85;68.10
65378;SHT31;51982;51.042;13.806;2023-05-14T09:51:03;19.97;68.09
65378;SHT31;51982;51.042;13.806;2023-05-14T09:53:29;19.95;67.78
65378;SHT31;51982;51.042;13.806;2023-05-14T09:55:56;19.91;67.60
65378;SHT31;51982;51.042;13.806;2023-05-14T09:58:21;19.89;67.82
65378;SHT31;51982;51.042;13.806;2023-05-14T10:00:47;19.85;68.24
65378;SHT31;51982;51.042;13.806;2023-05-14T10:03:14;19.94;68.85
65378;SHT31;51982;51.042;13.806;2023-05-14T10:05:41;19.91;67.93
65378;SHT31;51982;51.042;13.806;2023-05-14T10:08:19;19.99;68.32
65378;SHT31;51982;51.042;13.806;2023-05-14T10:10:47;19.99;67.72
65378;SHT31;51982;51.042;13.806;2023-05-14T10:13:14;20.07;67.63
65378;SHT31;51982;51.042;13.806;2023-05-14T10:18:18;19.97;66.89
65378;SHT31;51982;51.042;13.806;2023-05-14T10:20:53;19.94;66.57
65378;SHT31;51982;51.042;13.806;2023-05-14T10:23:21;20.02;67.34
65378;SHT31;51982;51.042;13.806;2023-05-14T10:25:46;20.01;67.03
65378;SHT31;51982;51.042;13.806;2023-05-14T10:28:11;20.11;67.60
65378;SHT31;51982;51.042;13.806;2023-05-14T10:30:43;20.17;68.06
65378;SHT31;51982;51.042;13.806;2023-05-14T10:33:11;20.19;67.31
65378;SHT31;51982;51.042;13.806;2023-05-14T10:35:59;20.07;66.35
65378;SHT31;51982;51.042;13.806;2023-05-14T10:38:26;20.02;66.93
65378;SHT31;51982;51.042;13.806;2023-05-14T10:41:01;19.97;67.02
65378;SHT31;51982;51.042;13.806;2023-05-14T10:43:27;19.89;66.86
65378;SHT31;51982;51.042;13.806;2023-05-14T10:45:57;19.88;67.45
65378;SHT31;51982;51.042;13.806;2023-05-14T10:48:23;19.84;67.10
65378;SHT31;51982;51.042;13.806;2023-05-14T10:50:50;19.81;67.23
65378;SHT31;51982;51.042;13.806;2023-05-14T10:53:15;19.73;66.71
65378;SHT31;51982;51.042;13.806;2023-05-14T10:55:41;19.74;66.60
65378;SHT31;51982;51.042;13.806;2023-05-14T10:58:08;19.75;66.39
65378;SHT31;51982;51.042;13.806;2023-05-14T11:00:34;19.74;66.30
65378;SHT31;51982;51.042;13.806;2023-05-14T11:03:03;19.70;66.36
65378;SHT31;51982;51.042;13.806;2023-05-14T11:05:30;19.73;66.69
65378;SHT31;51982;51.042;13.806;2023-05-14T11:07:56;19.77;66.70
65378;SHT31;51982;51.042;13.806;2023-05-14T11:10:23;19.79;66.56
65378;SHT31;51982;51.042;13.806;2023-05-14T11:12:54;19.85;66.45
65378;SHT31;51982;51.042;13.806;2023-05-14T11:15:22;19.88;66.28
65378;SHT31;51982;51.042;13.806;2023-05-14T11:17:49;19.95;66.63
65378;SHT31;51982;51.042;13.806;2023-05-14T11:20:15;20.01;66.87
65378;SHT31;51982;51.042;13.806;2023-05-14T11:22:42;20.12;66.51
65378;SHT31;51982;51.042;13.806;2023-05-14T11:25:08;20.21;66.13
65378;SHT31;51982;51.042;13.806;2023-05-14T11:27:36;20.28;66.39
65378;SHT31;51982;51.042;13.806;2023-05-14T11:30:27;20.38;66.97
65378;SHT31;51982;51.042;13.806;2023-05-14T11:32:55;20.52;66.66
65378;SHT31;51982;51.042;13.806;2023-05-14T11:35:20;20.55;66.41
65378;SHT31;51982;51.042;13.806;2023-05-14T11:37:49;20.66;66.37
65378;SHT31;51982;51.042;13.806;2023-05-14T11:40:18;20.76;66.30
65378;SHT31;51982;51.042;13.806;2023-05-14T11:42:43;20.89;66.45
65378;SHT31;51982;51.042;13.806;2023-05-14T11:45:12;20.96;65.82
65378;SHT31;51982;51.042;13.806;2023-05-14T11:47:39;20.99;65.47
65378;SHT31;51982;51.042;13.806;2023-05-14T11:50:05;20.97;64.90
65378;SHT31;51982;51.042;13.806;2023-05-14T11:52:30;20.99;64.99
65378;SHT31;51982;51.042;13.806;2023-05-14T11:54:55;20.96;65.11
65378;SHT31;51982;51.042;13.806;2023-05-14T11:57:21;21.06;65.51
65378;SHT31;51982;51.042;13.806;2023-05-14T11:59:47;21.11;65.29
65378;SHT31;51982;51.042;13.806;2023-05-14T12:02:16;21.14;64.08
65378;SHT31;51982;51.042;13.806;2023-05-14T12:04:42;21.14;63.38
65378;SHT31;51982;51.042;13.806;2023-05-14T12:07:10;21.27;64.14
65378;SHT31;51982;51.042;13.806;2023-05-14T12:09:37;21.28;63.93
65378;SHT31;51982;51.042;13.806;2023-05-14T12:12:09;21.34;63.72
65378;SHT31;51982;51.042;13.806;2023-05-14T12:14:41;21.37;63.50
65378;SHT31;51982;51.042;13.806;2023-05-14T12:17:15;21.43;64.02
65378;SHT31;51982;51.042;13.806;2023-05-14T12:19:42;21.47;63.75
65378;SHT31;51982;51.042;13.806;2023-05-14T12:22:09;21.47;62.92
65378;SHT31;51982;51.042;13.806;2023-05-14T12:24:35;21.48;62.17
65378;SHT31;51982;51.042;13.806;2023-05-14T12:27:01;21.54;61.89
65378;SHT31;51982;51.042;13.806;2023-05-14T12:29:27;21.57;61.45
65378;SHT31;51982;51.042;13.806;2023-05-14T12:31:52;21.54;61.23
65378;SHT31;51982;51.042;13.806;2023-05-14T12:34:17;21.62;61.00
65378;SHT31;51982;51.042;13.806;2023-05-14T12:36:43;21.66;61.39
65378;SHT31;51982;51.042;13.806;2023-05-14T12:39:09;21.78;61.85
65378;SHT31;51982;51.042;13.806;2023-05-14T12:41:35;21.84;61.87
65378;SHT31;51982;51.042;13.806;2023-05-14T12:44:02;21.88;61.69
65378;SHT31;51982;51.042;13.806;2023-05-14T12:46:28;21.85;61.37
65378;SHT31;51982;51.042;13.806;2023-05-14T12:48:53;21.88;61.48
65378;SHT31;51982;51.042;13.806;2023-05-14T12:51:19;21.91;61.85
65378;SHT31;51982;51.042;13.806;2023-05-14T12:53:44;21.88;61.08
65378;SHT31;51982;51.042;13.806;2023-05-14T12:56:10;21.89;61.35
65378;SHT31;51982;51.042;13.806;2023-05-14T12:58:35;21.88;61.24
65378;SHT31;51982;51.042;13.806;2023-05-14T13:01:01;21.86;61.37
65378;SHT31;51982;51.042;13.806;2023-05-14T13:03:26;21.88;61.66
65378;SHT31;51982;51.042;13.806;2023-05-14T13:05:52;21.86;61.40
65378;SHT31;51982;51.042;13.806;2023-05-14T13:08:18;21.91;61.57
65378;SHT31;51982;51.042;13.806;2023-05-14T13:10:46;21.96;61.59
65378;SHT31;51982;51.042;13.806;2023-05-14T13:13:11;21.91;60.87
65378;SHT31;51982;51.042;13.806;2023-05-14T13:15:37;21.84;60.37
65378;SHT31;51982;51.042;13.806;2023-05-14T13:18:02;21.81;60.79
65378;SHT31;51982;51.042;13.806;2023-05-14T13:20:28;21.79;61.07
65378;SHT31;51982;51.042;13.806;2023-05-14T13:22:55;21.81;61.38
65378;SHT31;51982;51.042;13.806;2023-05-14T13:25:20;21.81;61.21
65378;SHT31;51982;51.042;13.806;2023-05-14T13:27:45;21.75;61.22
65378;SHT31;51982;51.042;13.806;2023-05-14T13:30:11;21.77;61.23
65378;SHT31;51982;51.042;13.806;2023-05-14T13:32:36;21.62;60.65
65378;SHT31;51982;51.042;13.806;2023-05-14T13:35:01;21.64;60.83
65378;SHT31;51982;51.042;13.806;2023-05-14T13:37:27;21.64;60.63
65378;SHT31;51982;51.042;13.806;2023-05-14T13:39:52;21.57;60.70
65378;SHT31;51982;51.042;13.806;2023-05-14T13:42:17;21.50;60.91
65378;SHT31;51982;51.042;13.806;2023-05-14T13:44:42;21.50;61.06
65378;SHT31;51982;51.042;13.806;2023-05-14T13:47:07;21.48;61.24
65378;SHT31;51982;51.042;13.806;2023-05-14T13:49:33;21.48;61.19
65378;SHT31;51982;51.042;13.806;2023-05-14T13:51:58;21.51;61.01
65378;SHT31;51982;51.042;13.806;2023-05-14T13:54:23;21.50;61.01
65378;SHT31;51982;51.042;13.806;2023-05-14T13:56:48;21.50;61.24
65378;SHT31;51982;51.042;13.806;2023-05-14T13:59:14;21.48;61.31
65378;SHT31;51982;51.042;13.806;2023-05-14T14:01:39;21.50;61.46
65378;SHT31;51982;51.042;13.806;2023-05-14T14:04:07;21.52;61.60
65378;SHT31;51982;51.042;13.806;2023-05-14T14:06:32;21.51;61.37
65378;SHT31;51982;51.042;13.806;2023-05-14T14:08:57;21.40;61.29
65378;SHT31;51982;51.042;13.806;2023-05-14T14:11:22;21.45;61.78
65378;SHT31;51982;51.042;13.806;2023-05-14T14:13:48;21.45;61.93
65378;SHT31;51982;51.042;13.806;2023-05-14T14:16:13;21.47;61.73
65378;SHT31;51982;51.042;13.806;2023-05-14T14:18:38;21.44;61.58
65378;SHT31;51982;51.042;13.806;2023-05-14T14:21:04;21.43;61.79
65378;SHT31;51982;51.042;13.806;2023-05-14T14:23:30;21.48;62.12
65378;SHT31;51982;51.042;13.806;2023-05-14T14:25:56;21.50;62.28
65378;SHT31;51982;51.042;13.806;2023-05-14T14:28:21;21.51;62.44
65378;SHT31;51982;51.042;13.806;2023-05-14T14:30:47;21.48;62.17
65378;SHT31;51982;51.042;13.806;2023-05-14T14:33:12;21.43;62.09
65378;SHT31;51982;51.042;13.806;2023-05-14T14:35:37;21.41;62.21
65378;SHT31;51982;51.042;13.806;2023-05-14T14:38:03;21.41;62.45
65378;SHT31;51982;51.042;13.806;2023-05-14T14:40:28;21.43;62.46
65378;SHT31;51982;51.042;13.806;2023-05-14T14:42:53;21.38;61.91
65378;SHT31;51982;51.042;13.806;2023-05-14T14:45:18;21.37;61.98
65378;SHT31;51982;51.042;13.806;2023-05-14T14:47:45;21.34;62.01
65378;SHT31;51982;51.042;13.806;2023-05-14T14:50:13;21.33;61.99
65378;SHT31;51982;51.042;13.806;2023-05-14T14:52:40;21.31;62.17
65378;SHT31;51982;51.042;13.806;2023-05-14T14:55:07;21.34;62.15
65378;SHT31;51982;51.042;13.806;2023-05-14T14:57:33;21.33;62.19
65378;SHT31;51982;51.042;13.806;2023-05-14T14:59:58;21.30;62.37
65378;SHT31;51982;51.042;13.806;2023-05-14T15:02:23;21.24;61.87
65378;SHT31;51982;51.042;13.806;2023-05-14T15:04:48;21.19;61.65
65378;SHT31;51982;51.042;13.806;2023-05-14T15:07:14;21.15;61.61
65378;SHT31;51982;51.042;13.806;2023-05-14T15:09:41;21.20;61.73
65378;SHT31;51982;51.042;13.806;2023-05-14T15:12:06;21.11;61.68
65378;SHT31;51982;51.042;13.806;2023-05-14T15:14:33;21.13;61.81
65378;SHT31;51982;51.042;13.806;2023-05-14T15:16:58;21.11;61.75